createdAt,value
2023-02-26T00:01:51.454Z,16.30
2023-02-26T00:04:20.967Z,15.70
2023-02-26T00:06:56.750Z,14.90
2023-02-26T00:09:27.338Z,14.90
2023-02-26T00:11:56.329Z,14.10
2023-02-26T00:14:31.364Z,15.70
2023-02-26T00:17:38.553Z,15.40
2023-02-26T00:20:12.319Z,15.20
2023-02-26T00:22:42.986Z,15.40
2023-02-26T00:25:12.496Z,15.60
2023-02-26T00:27:41.754Z,14.90
2023-02-26T00:30:11.098Z,14.20
2023-02-26T00:32:42.258Z,14.20
2023-02-26T00:35:13.719Z,14.90
2023-02-26T00:38:06.234Z,15.80
2023-02-26T00:40:51.098Z,15.00
2023-02-26T00:43:23.169Z,15.90
2023-02-26T00:45:56.386Z,14.60
2023-02-26T00:48:54.749Z,16.40
2023-02-26T00:51:33.257Z,14.10
2023-02-26T00:54:11.466Z,13.20
2023-02-26T00:56:40.153Z,13.60
2023-02-26T00:59:09.145Z,14.50
2023-02-26T01:01:38.184Z,13.80
2023-02-26T01:04:09.968Z,14.50
2023-02-26T01:06:50.558Z,14.10
2023-02-26T01:09:33.613Z,14.30
2023-02-26T01:12:06.112Z,13.90
2023-02-26T01:14:34.932Z,12.00
2023-02-26T01:17:24.740Z,12.90
2023-02-26T01:20:02.529Z,14.10
2023-02-26T01:22:34.524Z,13.40
2023-02-26T01:25:05.581Z,13.30
2023-02-26T01:27:38.209Z,12.90
2023-02-26T01:30:08.028Z,13.30
2023-02-26T01:32:55.347Z,12.90
2023-02-26T01:35:31.659Z,13.20
2023-02-26T01:38:04.185Z,13.20
2023-02-26T01:40:49.223Z,14.60
2023-02-26T01:43:22.550Z,12.20
2023-02-26T01:45:52.463Z,13.80
2023-02-26T01:48:53.715Z,14.10
2023-02-26T01:52:01.629Z,12.20
2023-02-26T01:54:34.504Z,12.60
2023-02-26T01:57:08.698Z,14.20
2023-02-26T01:59:42.846Z,13.20
2023-02-26T02:02:12.699Z,13.60
2023-02-26T02:04:42.207Z,12.80
2023-02-26T02:07:11.548Z,12.70
2023-02-26T02:09:40.149Z,13.80
2023-02-26T02:12:17.901Z,13.70
2023-02-26T02:14:55.628Z,13.50
2023-02-26T02:17:38.335Z,14.00
2023-02-26T02:20:34.670Z,13.60
2023-02-26T02:23:11.138Z,13.50
2023-02-26T02:26:00.920Z,12.60
2023-02-26T02:28:42.742Z,12.50
2023-02-26T02:31:32.693Z,12.00
2023-02-26T02:34:10.638Z,13.00
2023-02-26T02:36:59.354Z,14.40
2023-02-26T02:39:48.960Z,13.60
2023-02-26T02:42:32.371Z,12.30
2023-02-26T02:45:08.724Z,11.90
2023-02-26T02:47:40.070Z,12.50
2023-02-26T02:50:32.108Z,13.50
2023-02-26T02:53:10.095Z,12.30
2023-02-26T02:55:46.568Z,13.60
2023-02-26T02:58:17.792Z,13.30
2023-02-26T03:00:49.832Z,13.10
2023-02-26T03:03:33.528Z,13.00
2023-02-26T03:06:03.376Z,13.10
2023-02-26T03:08:41.633Z,12.10
2023-02-26T03:11:10.745Z,13.10
2023-02-26T03:13:40.983Z,12.80
2023-02-26T03:16:55.635Z,13.80
2023-02-26T03:19:30.572Z,12.10
2023-02-26T03:22:00.284Z,13.00
2023-02-26T03:24:57.412Z,12.10
2023-02-26T03:27:32.054Z,11.70
2023-02-26T03:30:12.515Z,12.10
2023-02-26T03:32:59.453Z,12.70
2023-02-26T03:35:40.389Z,12.60
2023-02-26T03:38:12.925Z,11.60
2023-02-26T03:40:48.335Z,10.70
2023-02-26T03:43:28.886Z,10.80
2023-02-26T03:46:02.252Z,11.70
2023-02-26T03:48:31.276Z,13.20
2023-02-26T03:51:06.876Z,12.10
2023-02-26T03:53:50.460Z,12.00
2023-02-26T03:56:37.758Z,11.50
2023-02-26T03:59:29.507Z,12.60
2023-02-26T04:02:20.129Z,10.60
2023-02-26T04:05:02.309Z,12.60
2023-02-26T04:07:30.954Z,11.70
2023-02-26T04:09:59.478Z,12.40
2023-02-26T04:12:28.896Z,12.10
2023-02-26T04:14:57.883Z,11.90
2023-02-26T04:17:27.086Z,11.50
2023-02-26T04:19:57.604Z,12.40
2023-02-26T04:22:26.296Z,12.00
2023-02-26T04:25:00.598Z,13.50
2023-02-26T04:27:29.900Z,13.40
2023-02-26T04:29:58.690Z,13.00
2023-02-26T04:32:27.399Z,12.00
2023-02-26T04:34:56.187Z,12.50
2023-02-26T04:37:26.502Z,12.20
2023-02-26T04:39:55.478Z,11.40
2023-02-26T04:42:25.388Z,11.50
2023-02-26T04:44:54.075Z,13.30
2023-02-26T04:47:22.660Z,12.40
2023-02-26T04:49:51.343Z,12.10
2023-02-26T04:52:21.374Z,14.40
2023-02-26T04:54:50.146Z,13.10
2023-02-26T04:57:19.048Z,12.80
2023-02-26T04:59:48.143Z,12.70
2023-02-26T05:02:16.717Z,12.00
2023-02-26T05:04:46.600Z,12.70
2023-02-26T05:07:15.072Z,13.90
2023-02-26T05:09:44.050Z,13.30
2023-02-26T05:12:13.610Z,13.00
2023-02-26T05:14:42.603Z,12.80
2023-02-26T05:17:11.708Z,12.50
2023-02-26T05:19:42.592Z,12.40
2023-02-26T05:22:14.238Z,11.80
2023-02-26T05:24:44.046Z,12.90
2023-02-26T05:27:12.814Z,11.60
2023-02-26T05:29:45.999Z,12.20
2023-02-26T05:32:15.664Z,12.10
2023-02-26T05:34:45.401Z,11.70
2023-02-26T05:37:14.190Z,11.90
2023-02-26T05:39:44.415Z,12.20
2023-02-26T05:42:13.008Z,13.50
2023-02-26T05:44:41.517Z,11.80
2023-02-26T05:47:09.956Z,12.30
2023-02-26T05:49:42.227Z,12.40
2023-02-26T05:52:10.710Z,12.10
2023-02-26T05:54:39.294Z,12.30
2023-02-26T05:57:09.937Z,11.90
2023-02-26T05:59:40.652Z,14.70
2023-02-26T06:02:10.547Z,13.10
2023-02-26T06:04:39.149Z,12.60
2023-02-26T06:07:11.012Z,13.20
2023-02-26T06:09:39.590Z,15.10
2023-02-26T06:12:11.952Z,14.60
2023-02-26T06:14:40.649Z,13.70
2023-02-26T06:17:09.334Z,14.20
2023-02-26T06:19:38.537Z,15.00
2023-02-26T06:22:07.130Z,12.00
2023-02-26T06:24:35.561Z,10.80
2023-02-26T06:27:04.128Z,12.40
2023-02-26T06:29:32.848Z,13.00
2023-02-26T06:32:01.357Z,10.50
2023-02-26T06:34:30.270Z,10.00
2023-02-26T06:36:58.748Z,10.40
2023-02-26T06:39:27.531Z,9.50
2023-02-26T06:41:56.106Z,8.00
2023-02-26T06:44:25.886Z,8.10
2023-02-26T06:46:57.402Z,8.30
2023-02-26T06:49:27.935Z,7.50
2023-02-26T06:51:57.140Z,7.90
2023-02-26T06:54:25.750Z,8.20
2023-02-26T06:56:57.997Z,7.10
2023-02-26T06:59:26.624Z,7.40
2023-02-26T07:01:55.788Z,8.30
2023-02-26T07:04:24.270Z,7.60
2023-02-26T07:06:53.014Z,6.10
2023-02-26T07:09:21.700Z,7.40
2023-02-26T07:11:51.892Z,7.00
2023-02-26T07:14:20.563Z,8.30
2023-02-26T07:16:51.340Z,7.70
2023-02-26T07:19:20.412Z,8.30
2023-02-26T07:21:49.301Z,8.10
2023-02-26T07:24:18.290Z,8.00
2023-02-26T07:26:46.882Z,7.50
2023-02-26T07:29:15.558Z,8.70
2023-02-26T07:31:44.486Z,7.80
2023-02-26T07:34:13.155Z,13.30
2023-02-26T07:36:43.086Z,11.50
2023-02-26T07:39:11.712Z,9.20
2023-02-26T07:41:41.340Z,9.90
2023-02-26T07:44:13.097Z,11.20
2023-02-26T07:46:43.829Z,13.20
2023-02-26T07:49:12.732Z,16.50
2023-02-26T07:51:45.973Z,16.20
2023-02-26T07:54:14.612Z,15.00
2023-02-26T07:56:45.448Z,12.10
2023-02-26T07:59:15.552Z,11.70
2023-02-26T08:01:44.232Z,9.80
2023-02-26T08:04:13.921Z,10.00
2023-02-26T08:06:42.431Z,8.80
2023-02-26T08:09:14.822Z,9.00
2023-02-26T08:11:43.688Z,8.80
2023-02-26T08:14:12.477Z,7.80
2023-02-26T08:16:41.278Z,7.80
2023-02-26T08:19:09.994Z,8.10
2023-02-26T08:21:38.846Z,9.00
2023-02-26T08:24:07.537Z,8.70
2023-02-26T08:26:37.391Z,7.90
2023-02-26T08:29:06.032Z,8.20
2023-02-26T08:31:35.770Z,8.40
2023-02-26T08:34:04.520Z,8.50
2023-02-26T08:36:33.110Z,7.20
2023-02-26T08:39:02.712Z,8.70
2023-02-26T08:41:32.756Z,8.40
2023-02-26T08:44:02.027Z,7.20
2023-02-26T08:46:31.381Z,7.30
2023-02-26T08:49:01.251Z,6.50
2023-02-26T08:51:31.260Z,7.00
2023-02-26T08:54:00.150Z,6.80
2023-02-26T08:56:28.945Z,7.20
2023-02-26T08:58:57.522Z,9.90
2023-02-26T09:01:26.621Z,9.90
2023-02-26T09:03:55.512Z,9.80
2023-02-26T09:06:24.358Z,9.30
2023-02-26T09:08:53.703Z,8.20
2023-02-26T09:11:22.438Z,8.50
2023-02-26T09:13:51.484Z,9.40
2023-02-26T09:16:20.411Z,9.40
2023-02-26T09:18:50.901Z,9.00
2023-02-26T09:21:19.432Z,9.20
2023-02-26T09:23:49.438Z,8.40
2023-02-26T09:26:18.395Z,7.90
2023-02-26T09:28:51.377Z,7.70
2023-02-26T09:31:20.010Z,9.10
2023-02-26T09:33:48.530Z,8.40
2023-02-26T09:36:17.004Z,8.70
2023-02-26T09:38:46.446Z,8.20
2023-02-26T09:41:21.470Z,7.80
2023-02-26T09:44:24.560Z,7.20
2023-02-26T09:46:55.496Z,7.30
2023-02-26T09:49:36.111Z,6.70
2023-02-26T09:52:28.840Z,7.50
2023-02-26T09:55:21.279Z,7.80
2023-02-26T09:57:50.044Z,7.20
2023-02-26T10:00:38.045Z,6.90
2023-02-26T10:03:28.470Z,6.60
2023-02-26T10:06:16.213Z,7.70
2023-02-26T10:09:12.824Z,6.40
2023-02-26T10:11:47.508Z,6.00
2023-02-26T10:14:37.706Z,6.10
2023-02-26T10:17:21.817Z,6.30
2023-02-26T10:19:54.538Z,5.90
2023-02-26T10:22:52.333Z,6.70
2023-02-26T10:25:59.327Z,5.80
2023-02-26T10:28:33.892Z,5.60
2023-02-26T10:31:24.020Z,4.90
2023-02-26T10:34:00.130Z,4.60
2023-02-26T10:36:31.103Z,4.80
2023-02-26T10:39:04.832Z,4.40
2023-02-26T10:41:34.872Z,4.40
2023-02-26T10:44:15.315Z,3.80
2023-02-26T10:46:54.465Z,4.30
2023-02-26T10:49:54.967Z,4.10
2023-02-26T10:52:25.960Z,4.70
2023-02-26T10:55:38.210Z,5.00
2023-02-26T10:58:14.553Z,5.00
2023-02-26T11:00:46.774Z,5.00
2023-02-26T11:03:20.016Z,5.00
2023-02-26T11:05:49.233Z,5.50
2023-02-26T11:08:32.237Z,7.40
2023-02-26T11:11:03.946Z,12.60
2023-02-26T11:13:35.908Z,8.90
2023-02-26T11:16:12.613Z,7.50
2023-02-26T11:18:44.948Z,6.00
2023-02-26T11:21:28.933Z,5.10
2023-02-26T11:24:05.372Z,5.70
2023-02-26T11:26:38.109Z,4.80
2023-02-26T11:29:06.749Z,5.60
2023-02-26T11:31:35.295Z,6.50
2023-02-26T11:34:05.177Z,5.30
2023-02-26T11:36:34.378Z,5.40
2023-02-26T11:39:25.186Z,4.60
2023-02-26T11:41:57.704Z,5.90
2023-02-26T11:44:38.658Z,5.90
2023-02-26T11:47:16.060Z,5.60
2023-02-26T11:49:47.944Z,6.30
2023-02-26T11:52:28.343Z,6.00
2023-02-26T11:55:04.492Z,5.70
2023-02-26T11:57:33.615Z,5.70
2023-02-26T12:00:22.078Z,5.80
2023-02-26T12:02:51.244Z,6.00
2023-02-26T12:05:20.559Z,5.70
2023-02-26T12:07:51.884Z,5.60
2023-02-26T12:10:38.442Z,5.60
2023-02-26T12:13:28.000Z,6.20
2023-02-26T12:16:25.364Z,6.60
2023-02-26T12:19:12.491Z,6.40
2023-02-26T12:22:15.484Z,6.30
2023-02-26T12:25:04.093Z,7.20
2023-02-26T12:27:55.648Z,6.80
2023-02-26T12:30:42.971Z,7.40
2023-02-26T12:33:34.582Z,8.20
2023-02-26T12:36:06.823Z,8.90
2023-02-26T12:38:46.110Z,8.20
2023-02-26T12:41:22.837Z,8.10
2023-02-26T12:43:55.371Z,7.20
2023-02-26T12:46:27.052Z,7.70
2023-02-26T12:49:23.487Z,7.10
2023-02-26T12:52:16.750Z,6.50
2023-02-26T12:55:01.568Z,6.30
2023-02-26T12:57:39.631Z,7.40
2023-02-26T13:00:13.147Z,10.80
2023-02-26T13:03:10.980Z,10.60
2023-02-26T13:05:45.239Z,8.80
2023-02-26T13:08:28.301Z,7.90
2023-02-26T13:11:27.880Z,7.00
2023-02-26T13:14:22.228Z,6.90
2023-02-26T13:16:52.730Z,7.30
2023-02-26T13:19:21.964Z,7.70
2023-02-26T13:22:06.395Z,7.50
2023-02-26T13:24:44.019Z,7.50
2023-02-26T13:27:12.753Z,5.70
2023-02-26T13:29:47.896Z,6.20
2023-02-26T13:32:21.903Z,6.80
2023-02-26T13:34:55.161Z,6.50
2023-02-26T13:37:43.153Z,5.60
2023-02-26T13:40:14.543Z,5.40
2023-02-26T13:42:51.268Z,5.40
2023-02-26T13:46:17.638Z,6.00
2023-02-26T13:48:52.416Z,6.40
2023-02-26T13:51:20.858Z,7.40
2023-02-26T13:53:53.348Z,7.00
2023-02-26T13:56:31.419Z,7.50
2023-02-26T13:59:05.371Z,8.80
2023-02-26T14:01:37.537Z,8.90
2023-02-26T14:04:22.780Z,8.00
2023-02-26T14:06:52.873Z,6.90
2023-02-26T14:09:22.052Z,7.10
2023-02-26T14:12:18.276Z,6.60
2023-02-26T14:15:13.242Z,6.00
2023-02-26T14:17:52.581Z,5.70
2023-02-26T14:20:26.933Z,5.60
2023-02-26T14:23:08.158Z,5.40
2023-02-26T14:25:49.885Z,5.40
2023-02-26T14:28:25.474Z,5.60
2023-02-26T14:31:06.994Z,5.20
2023-02-26T14:33:40.926Z,5.70
2023-02-26T14:36:16.885Z,5.80
2023-02-26T14:38:45.749Z,6.40
2023-02-26T14:41:27.708Z,6.70
2023-02-26T14:44:06.853Z,6.80
2023-02-26T14:46:35.390Z,7.70
2023-02-26T14:49:05.585Z,10.70
2023-02-26T14:52:04.508Z,23.80
2023-02-26T14:54:54.883Z,14.20
2023-02-26T14:57:57.187Z,10.70
2023-02-26T15:00:51.331Z,10.00
2023-02-26T15:03:40.891Z,10.30
2023-02-26T15:06:34.294Z,9.40
2023-02-26T15:09:31.977Z,9.80
2023-02-26T15:12:32.947Z,8.00
2023-02-26T15:15:17.460Z,8.80
2023-02-26T15:18:23.195Z,13.70
2023-02-26T15:21:10.964Z,23.80
2023-02-26T15:23:53.778Z,13.10
2023-02-26T15:26:28.317Z,19.10
2023-02-26T15:29:07.246Z,20.80
2023-02-26T15:31:43.911Z,14.10
2023-02-26T15:34:17.256Z,12.70
2023-02-26T15:36:47.384Z,12.80
2023-02-26T15:39:19.388Z,12.20
2023-02-26T15:41:48.679Z,10.10
2023-02-26T15:44:22.854Z,10.50
2023-02-26T15:47:02.581Z,9.10
2023-02-26T15:49:36.176Z,10.80
2023-02-26T15:52:07.479Z,10.00
2023-02-26T15:54:40.211Z,14.10
2023-02-26T15:57:11.057Z,15.80
2023-02-26T15:59:45.756Z,10.00
2023-02-26T16:02:26.893Z,10.20
2023-02-26T16:04:55.403Z,9.60
2023-02-26T16:07:24.269Z,8.20
2023-02-26T16:09:54.986Z,8.40
2023-02-26T16:12:40.745Z,9.10
2023-02-26T16:15:13.717Z,11.00
2023-02-26T16:17:48.343Z,10.70
2023-02-26T16:20:27.251Z,12.50
2023-02-26T16:23:00.220Z,17.80
2023-02-26T16:25:37.487Z,11.80
2023-02-26T16:28:12.965Z,10.50
2023-02-26T16:30:44.213Z,9.80
2023-02-26T16:33:15.152Z,11.50
2023-02-26T16:35:49.080Z,10.20
2023-02-26T16:38:23.978Z,12.20
2023-02-26T16:41:01.330Z,17.50
2023-02-26T16:43:45.723Z,17.30
2023-02-26T16:46:18.524Z,15.60
2023-02-26T16:48:54.742Z,14.50
2023-02-26T16:51:25.592Z,16.50
2023-02-26T16:56:35.111Z,13.90
2023-02-26T16:59:23.189Z,12.40
2023-02-26T17:02:01.009Z,11.20
2023-02-26T17:04:32.161Z,11.60
2023-02-26T17:07:00.922Z,12.00
2023-02-26T17:09:29.613Z,11.20
2023-02-26T17:12:07.394Z,12.50
2023-02-26T17:14:40.843Z,15.80
2023-02-26T17:17:10.404Z,14.00
2023-02-26T17:19:38.958Z,13.70
2023-02-26T17:22:11.351Z,14.40
2023-02-26T17:24:41.199Z,14.70
2023-02-26T17:27:10.736Z,14.80
2023-02-26T17:29:43.697Z,13.80
2023-02-26T17:32:24.187Z,13.00
2023-02-26T17:34:55.593Z,10.00
2023-02-26T17:37:26.184Z,11.20
2023-02-26T17:39:54.609Z,12.60
2023-02-26T17:42:23.803Z,19.10
2023-02-26T17:44:53.014Z,56.90
2023-02-26T17:47:23.589Z,47.30
2023-02-26T17:49:52.840Z,61.40
2023-02-26T17:52:21.260Z,68.10
2023-02-26T17:54:49.628Z,48.20
2023-02-26T17:57:19.947Z,66.50
2023-02-26T17:59:49.570Z,61.40
2023-02-26T18:02:23.524Z,47.50
2023-02-26T18:04:52.313Z,22.60
2023-02-26T18:07:21.374Z,17.00
2023-02-26T18:09:49.837Z,13.70
2023-02-26T18:12:22.431Z,13.30
2023-02-26T18:14:51.802Z,14.40
2023-02-26T18:17:25.501Z,21.60
2023-02-26T18:19:54.730Z,27.00
2023-02-26T18:22:25.695Z,24.30
2023-02-26T18:25:14.488Z,23.90
2023-02-26T18:27:46.326Z,27.50
2023-02-26T18:30:23.135Z,17.60
2023-02-26T18:32:53.182Z,36.60
2023-02-26T18:35:26.372Z,21.60
2023-02-26T18:37:55.557Z,32.60
2023-02-26T18:40:26.056Z,22.60
2023-02-26T18:42:55.049Z,29.50
2023-02-26T18:45:23.688Z,19.00
2023-02-26T18:47:52.215Z,19.00
2023-02-26T18:50:24.608Z,16.70
2023-02-26T18:52:53.268Z,17.10
2023-02-26T18:55:22.545Z,15.30
2023-02-26T18:57:51.500Z,14.70
2023-02-26T19:00:21.603Z,46.40
2023-02-26T19:02:50.516Z,41.70
2023-02-26T19:05:23.453Z,21.80
2023-02-26T19:07:52.062Z,35.20
2023-02-26T19:10:20.787Z,39.30
2023-02-26T19:12:51.643Z,50.20
2023-02-26T19:15:20.046Z,47.20
2023-02-26T19:17:48.605Z,20.30
2023-02-26T19:20:17.280Z,15.30
2023-02-26T19:22:49.176Z,10.50
2023-02-26T19:25:24.219Z,11.20
2023-02-26T19:27:53.774Z,13.60
2023-02-26T19:30:26.260Z,14.80
2023-02-26T19:32:55.270Z,12.60
2023-02-26T19:35:27.246Z,11.20
2023-02-26T19:37:55.895Z,14.50
2023-02-26T19:40:24.830Z,11.90
2023-02-26T19:42:53.213Z,30.10
2023-02-26T19:45:21.729Z,23.50
2023-02-26T19:47:50.186Z,34.20
2023-02-26T19:50:19.591Z,63.80
2023-02-26T19:52:48.638Z,65.40
2023-02-26T19:55:17.173Z,45.50
2023-02-26T19:57:50.290Z,52.30
2023-02-26T20:00:19.148Z,36.00
2023-02-26T20:02:47.686Z,35.60
2023-02-26T20:05:18.135Z,17.90
2023-02-26T20:07:48.344Z,36.00
2023-02-26T20:10:18.254Z,32.10
2023-02-26T20:12:48.598Z,54.60
2023-02-26T20:15:17.139Z,52.90
2023-02-26T20:17:45.643Z,53.90
2023-02-26T20:20:18.994Z,36.60
2023-02-26T20:22:49.580Z,29.00
2023-02-26T20:25:19.479Z,46.40
2023-02-26T20:27:48.813Z,63.70
2023-02-26T20:30:17.790Z,44.20
2023-02-26T20:32:46.891Z,35.30
2023-02-26T20:35:15.766Z,29.60
2023-02-26T20:37:45.150Z,15.70
2023-02-26T20:40:15.602Z,10.00
2023-02-26T20:42:44.093Z,18.70
2023-02-26T20:45:15.799Z,18.20
2023-02-26T20:47:44.309Z,20.20
2023-02-26T20:50:13.334Z,13.10
2023-02-26T20:52:42.997Z,21.10
2023-02-26T20:55:11.814Z,17.30
2023-02-26T20:57:41.643Z,20.20
2023-02-26T21:00:11.706Z,12.70
2023-02-26T21:02:41.303Z,18.00
2023-02-26T21:05:10.744Z,13.80
2023-02-26T21:07:39.728Z,14.90
2023-02-26T21:10:12.735Z,32.80
2023-02-26T21:15:10.950Z,29.60
2023-02-26T21:17:40.887Z,39.10
2023-02-26T21:20:18.333Z,108.60
2023-02-26T21:22:47.772Z,61.20
2023-02-26T21:25:16.769Z,20.80
2023-02-26T21:27:45.354Z,15.90
2023-02-26T21:30:14.010Z,13.70
2023-02-26T21:32:44.371Z,13.10
2023-02-26T21:35:16.232Z,10.30
2023-02-26T21:37:45.358Z,9.30
2023-02-26T21:40:14.980Z,9.20
2023-02-26T21:42:48.150Z,9.70
2023-02-26T21:45:16.792Z,8.90
2023-02-26T21:47:45.798Z,9.90
2023-02-26T21:50:14.363Z,8.00
2023-02-26T21:52:45.039Z,9.90
2023-02-26T21:55:13.807Z,8.90
2023-02-26T21:57:42.323Z,8.30
2023-02-26T22:00:11.813Z,7.20
2023-02-26T22:02:40.546Z,7.70
2023-02-26T22:05:10.334Z,6.50
2023-02-26T22:07:39.158Z,6.40
2023-02-26T22:10:08.293Z,6.50
2023-02-26T22:12:37.309Z,6.40
2023-02-26T22:15:06.628Z,6.90
2023-02-26T22:17:36.997Z,7.10
2023-02-26T22:20:10.048Z,7.50
2023-02-26T22:25:07.771Z,6.60
2023-02-26T22:27:37.012Z,8.40
2023-02-26T22:30:09.884Z,10.10
2023-02-26T22:32:39.498Z,13.70
2023-02-26T22:35:08.706Z,12.30
2023-02-26T22:37:37.798Z,11.70
2023-02-26T22:40:07.556Z,10.70
2023-02-26T22:42:36.407Z,23.70
2023-02-26T22:45:05.750Z,17.40
2023-02-26T22:47:35.478Z,17.60
2023-02-26T22:50:04.576Z,15.80
2023-02-26T22:52:37.632Z,15.70
2023-02-26T22:55:07.143Z,23.90
2023-02-26T22:57:36.504Z,54.80
2023-02-26T23:00:08.783Z,165.40
2023-02-26T23:02:39.203Z,94.60
2023-02-26T23:05:09.420Z,56.10
2023-02-26T23:07:41.608Z,44.40
2023-02-26T23:10:13.720Z,36.60
2023-02-26T23:12:43.121Z,22.90
2023-02-26T23:15:11.893Z,26.90
2023-02-26T23:17:43.517Z,22.70
2023-02-26T23:20:14.116Z,15.10
2023-02-26T23:22:43.987Z,14.40
2023-02-26T23:25:13.430Z,24.00
2023-02-26T23:27:41.938Z,97.10
2023-02-26T23:30:11.047Z,60.60
2023-02-26T23:32:39.585Z,40.30
2023-02-26T23:35:08.310Z,30.30
2023-02-26T23:37:37.503Z,26.40
2023-02-26T23:40:07.938Z,54.50
2023-02-26T23:42:36.905Z,35.40
2023-02-26T23:45:05.624Z,23.70
2023-02-26T23:47:35.270Z,18.80
2023-02-26T23:50:07.703Z,16.10
2023-02-26T23:52:37.641Z,43.20
2023-02-26T23:55:06.853Z,31.40
2023-02-26T23:57:36.787Z,51.00
